createdAt,value
2019-03-04T00:00:53.302Z,985.63
2019-03-04T00:01:53.303Z,985.71
2019-03-04T00:02:53.205Z,985.66
2019-03-04T00:03:53.172Z,985.64
2019-03-04T00:04:53.129Z,985.67
2019-03-04T00:05:53.033Z,985.65
2019-03-04T00:06:53.010Z,985.64
2019-03-04T00:07:53.013Z,985.73
2019-03-04T00:08:52.967Z,985.68
2019-03-04T00:09:52.821Z,985.72
2019-03-04T00:10:52.773Z,985.82
2019-03-04T00:11:52.733Z,985.79
2019-03-04T00:12:52.675Z,985.73
2019-03-04T00:13:52.665Z,985.71
2019-03-04T00:14:52.595Z,985.64
2019-03-04T00:15:52.521Z,985.69
2019-03-04T00:16:52.486Z,985.71
2019-03-04T00:17:52.421Z,985.80
2019-03-04T00:18:52.395Z,985.80
2019-03-04T00:19:52.325Z,985.73
2019-03-04T00:20:52.270Z,985.71
2019-03-04T00:21:52.214Z,985.65
2019-03-04T00:22:52.167Z,985.59
2019-03-04T00:23:52.167Z,985.57
2019-03-04T00:24:52.054Z,985.53
2019-03-04T00:25:52.014Z,985.56
2019-03-04T00:26:51.951Z,985.57
2019-03-04T00:27:51.915Z,985.56
2019-03-04T00:28:51.902Z,985.59
2019-03-04T00:29:51.794Z,985.51
2019-03-04T00:30:51.762Z,985.49
2019-03-04T00:31:51.724Z,985.47
2019-03-04T00:32:51.643Z,985.43
2019-03-04T00:33:51.619Z,985.39
2019-03-04T00:34:51.542Z,985.45
2019-03-04T00:35:51.507Z,985.44
2019-03-04T00:36:51.441Z,985.41
2019-03-04T00:37:51.377Z,985.39
2019-03-04T00:38:51.402Z,985.44
2019-03-04T00:39:51.287Z,985.44
2019-03-04T00:40:51.252Z,985.39
2019-03-04T00:41:51.168Z,985.36
2019-03-04T00:42:51.117Z,985.40
2019-03-04T00:43:51.102Z,985.43
2019-03-04T00:44:51.015Z,985.37
2019-03-04T00:45:50.988Z,985.29
2019-03-04T00:46:50.914Z,985.34
2019-03-04T00:47:50.883Z,985.33
2019-03-04T00:48:50.926Z,985.19
2019-03-04T00:49:50.797Z,985.23
2019-03-04T00:50:50.723Z,985.26
2019-03-04T00:51:50.664Z,985.24
2019-03-04T00:52:50.604Z,985.11
2019-03-04T00:53:50.549Z,985.10
2019-03-04T00:54:50.515Z,985.10
2019-03-04T00:55:50.454Z,985.06
2019-03-04T00:56:50.414Z,985.06
2019-03-04T00:57:50.399Z,984.97
2019-03-04T00:58:50.295Z,984.98
2019-03-04T00:59:50.271Z,984.93
2019-03-04T01:00:50.211Z,984.86
2019-03-04T01:01:50.141Z,984.80
2019-03-04T01:02:50.089Z,984.79
2019-03-04T01:03:50.063Z,984.76
2019-03-04T01:04:50.021Z,984.68
2019-03-04T01:05:49.930Z,984.67
2019-03-04T01:06:49.881Z,984.67
2019-03-04T01:07:49.835Z,984.68
2019-03-04T01:08:49.782Z,984.62
2019-03-04T01:09:49.752Z,984.59
2019-03-04T01:10:49.681Z,984.60
2019-03-04T01:11:49.658Z,984.59
2019-03-04T01:12:49.583Z,984.49
2019-03-04T01:13:49.511Z,984.49
2019-03-04T01:14:49.524Z,984.38
2019-03-04T01:15:49.421Z,984.31
2019-03-04T01:16:49.356Z,984.15
2019-03-04T01:17:49.323Z,984.13
2019-03-04T01:18:49.256Z,984.10
2019-03-04T01:19:49.246Z,984.05
2019-03-04T01:20:49.175Z,984.11
2019-03-04T01:21:49.101Z,984.12
2019-03-04T01:22:49.042Z,984.07
2019-03-04T01:23:48.996Z,984.03
2019-03-04T01:24:48.984Z,984.01
2019-03-04T01:25:48.890Z,984.00
2019-03-04T01:26:48.856Z,983.92
2019-03-04T01:27:48.799Z,983.88
2019-03-04T01:28:48.766Z,983.79
2019-03-04T01:29:48.711Z,983.85
2019-03-04T01:30:48.642Z,983.88
2019-03-04T01:31:48.581Z,983.91
2019-03-04T01:32:48.549Z,983.91
2019-03-04T01:33:48.502Z,983.87
2019-03-04T01:34:48.464Z,983.86
2019-03-04T01:35:48.399Z,983.90
2019-03-04T01:36:48.323Z,983.80
2019-03-04T01:37:48.359Z,983.82
2019-03-04T01:38:48.241Z,983.78
2019-03-04T01:39:48.199Z,983.81
2019-03-04T01:40:48.124Z,983.81
2019-03-04T01:41:48.069Z,983.74
2019-03-04T01:42:48.052Z,983.83
2019-03-04T01:43:48.022Z,983.72
2019-03-04T01:44:47.951Z,983.69
2019-03-04T01:45:47.875Z,983.71
2019-03-04T01:46:47.804Z,983.71
2019-03-04T01:47:47.818Z,983.75
2019-03-04T01:48:47.756Z,983.72
2019-03-04T01:49:47.704Z,983.69
2019-03-04T01:50:47.611Z,983.64
2019-03-04T01:51:47.549Z,983.56
2019-03-04T01:52:47.500Z,983.56
2019-03-04T01:53:47.458Z,983.56
2019-03-04T01:54:47.424Z,983.56
2019-03-04T01:55:47.350Z,983.44
2019-03-04T01:56:47.292Z,983.38
2019-03-04T01:57:47.281Z,983.25
2019-03-04T01:58:47.204Z,983.27
2019-03-04T01:59:47.159Z,983.34
2019-03-04T02:00:47.128Z,983.41
2019-03-04T02:01:47.050Z,983.37
2019-03-04T02:02:46.991Z,983.34
2019-03-04T02:03:46.982Z,983.39
2019-03-04T02:04:46.906Z,983.30
2019-03-04T02:05:46.868Z,983.31
2019-03-04T02:06:46.806Z,983.25
2019-03-04T02:07:46.719Z,983.20
2019-03-04T02:08:46.715Z,983.19
2019-03-04T02:09:46.623Z,983.21
2019-03-04T02:10:46.607Z,983.07
2019-03-04T02:11:46.563Z,983.10
2019-03-04T02:12:46.476Z,983.08
2019-03-04T02:13:46.438Z,983.08
2019-03-04T02:14:46.367Z,983.00
2019-03-04T02:15:46.379Z,983.03
2019-03-04T02:16:46.277Z,983.06
2019-03-04T02:17:46.215Z,983.02
2019-03-04T02:18:46.168Z,982.95
2019-03-04T02:19:46.106Z,982.91
2019-03-04T02:20:46.101Z,982.88
2019-03-04T02:21:46.013Z,982.85
2019-03-04T02:22:45.952Z,982.85
2019-03-04T02:23:45.905Z,982.83
2019-03-04T02:24:45.850Z,982.81
2019-03-04T02:25:45.832Z,982.77
2019-03-04T02:26:45.743Z,982.67
2019-03-04T02:27:45.687Z,982.58
2019-03-04T02:28:45.697Z,982.58
2019-03-04T02:29:45.608Z,982.47
2019-03-04T02:30:45.585Z,982.40
2019-03-04T02:31:45.558Z,982.31
2019-03-04T02:32:45.468Z,982.30
2019-03-04T02:33:45.387Z,982.37
2019-03-04T02:34:45.331Z,982.37
2019-03-04T02:35:45.305Z,982.36
2019-03-04T02:36:45.239Z,982.38
2019-03-04T02:37:45.207Z,982.39
2019-03-04T02:38:45.137Z,982.47
2019-03-04T02:39:45.110Z,982.39
2019-03-04T02:40:45.101Z,982.32
2019-03-04T02:41:44.974Z,982.37
2019-03-04T02:42:44.925Z,982.39
2019-03-04T02:43:44.888Z,982.37
2019-03-04T02:44:44.818Z,982.36
2019-03-04T02:45:44.857Z,982.29
2019-03-04T02:46:44.734Z,982.25
2019-03-04T02:47:44.669Z,982.20
2019-03-04T02:48:44.641Z,982.23
2019-03-04T02:49:44.567Z,982.23
2019-03-04T02:50:44.550Z,982.17
2019-03-04T02:51:44.477Z,982.17
2019-03-04T02:52:44.418Z,982.16
2019-03-04T02:53:44.348Z,982.09
2019-03-04T02:54:44.306Z,981.98
2019-03-04T02:55:44.326Z,981.86
2019-03-04T02:56:44.224Z,981.93
2019-03-04T02:57:44.157Z,981.91
2019-03-04T02:58:44.098Z,981.74
2019-03-04T02:59:44.050Z,981.74
2019-03-04T03:00:44.023Z,981.77
2019-03-04T03:01:43.985Z,981.74
2019-03-04T03:02:43.914Z,981.71
2019-03-04T03:03:43.830Z,981.81
2019-03-04T03:04:43.790Z,981.85
2019-03-04T03:05:43.759Z,981.91
2019-03-04T03:06:43.690Z,981.83
2019-03-04T03:07:43.683Z,981.87
2019-03-04T03:08:43.579Z,981.78
2019-03-04T03:09:43.530Z,981.71
2019-03-04T03:10:43.518Z,981.58
2019-03-04T03:11:43.431Z,981.65
2019-03-04T03:12:43.417Z,981.77
2019-03-04T03:13:43.339Z,981.78
2019-03-04T03:14:43.273Z,981.67
2019-03-04T03:15:43.256Z,981.63
2019-03-04T03:16:43.257Z,981.59
2019-03-04T03:17:43.127Z,981.60
2019-03-04T03:18:43.080Z,981.57
2019-03-04T03:19:43.036Z,981.50
2019-03-04T03:20:42.992Z,981.49
2019-03-04T03:21:42.930Z,981.42
2019-03-04T03:22:42.858Z,981.45
2019-03-04T03:23:42.819Z,981.45
2019-03-04T03:24:42.760Z,981.50
2019-03-04T03:25:42.726Z,981.40
2019-03-04T03:26:42.657Z,981.33
2019-03-04T03:27:42.614Z,981.32
2019-03-04T03:28:42.559Z,981.39
2019-03-04T03:29:42.498Z,981.37
2019-03-04T03:30:42.475Z,981.35
2019-03-04T03:31:42.400Z,981.38
2019-03-04T03:32:42.373Z,981.38
2019-03-04T03:33:42.309Z,981.35
2019-03-04T03:34:42.371Z,981.35
2019-03-04T03:35:42.293Z,981.30
2019-03-04T03:36:42.158Z,981.26
2019-03-04T03:37:42.086Z,981.21
2019-03-04T03:38:42.068Z,981.25
2019-03-04T03:39:41.978Z,981.22
2019-03-04T03:40:42.005Z,981.18
2019-03-04T03:41:41.883Z,981.17
2019-03-04T03:42:41.826Z,981.15
2019-03-04T03:43:41.831Z,981.12
2019-03-04T03:44:41.735Z,981.01
2019-03-04T03:45:41.674Z,980.98
2019-03-04T03:46:41.674Z,980.92
2019-03-04T03:47:41.566Z,980.90
2019-03-04T03:48:41.530Z,980.79
2019-03-04T03:49:41.463Z,980.75
2019-03-04T03:50:41.432Z,980.74
2019-03-04T03:51:41.429Z,980.68
2019-03-04T03:52:41.320Z,980.63
2019-03-04T03:53:41.298Z,980.63
2019-03-04T03:54:41.209Z,980.63
2019-03-04T03:55:41.158Z,980.56
2019-03-04T03:56:41.166Z,980.49
2019-03-04T03:57:41.055Z,980.43
2019-03-04T03:58:41.007Z,980.36
2019-03-04T03:59:40.966Z,980.31
2019-03-04T04:00:40.901Z,980.22
2019-03-04T04:01:40.892Z,980.14
2019-03-04T04:02:40.802Z,980.10
2019-03-04T04:03:40.782Z,980.13
2019-03-04T04:04:40.721Z,980.03
2019-03-04T04:05:40.650Z,979.99
2019-03-04T04:06:40.633Z,979.93
2019-03-04T04:07:40.541Z,979.86
2019-03-04T04:08:40.486Z,979.77
2019-03-04T04:09:40.446Z,979.54
2019-03-04T04:10:40.413Z,979.38
2019-03-04T04:11:40.400Z,979.36
2019-03-04T04:12:40.311Z,979.43
2019-03-04T04:13:40.233Z,979.59
2019-03-04T04:14:40.192Z,979.81
2019-03-04T04:15:40.127Z,979.82
2019-03-04T04:16:40.102Z,979.78
2019-03-04T04:17:40.023Z,979.69
2019-03-04T04:18:39.980Z,979.80
2019-03-04T04:19:39.961Z,979.78
2019-03-04T04:20:39.889Z,979.72
2019-03-04T04:21:39.837Z,979.69
2019-03-04T04:22:39.778Z,979.71
2019-03-04T04:23:39.739Z,979.66
2019-03-04T04:24:39.672Z,979.61
2019-03-04T04:25:39.609Z,979.54
2019-03-04T04:26:39.616Z,979.40
2019-03-04T04:27:39.569Z,979.31
2019-03-04T04:28:39.475Z,979.30
2019-03-04T04:29:39.452Z,979.39
2019-03-04T04:30:39.366Z,979.23
2019-03-04T04:31:39.352Z,979.21
2019-03-04T04:32:39.255Z,979.27
2019-03-04T04:33:39.210Z,979.24
2019-03-04T04:34:39.164Z,979.20
2019-03-04T04:35:39.099Z,979.08
2019-03-04T04:36:39.077Z,979.03
2019-03-04T04:37:38.981Z,978.92
2019-03-04T04:38:38.941Z,978.80
2019-03-04T04:39:38.887Z,978.66
2019-03-04T04:40:38.851Z,978.71
2019-03-04T04:41:38.804Z,978.74
2019-03-04T04:42:38.759Z,978.70
2019-03-04T04:43:38.705Z,978.76
2019-03-04T04:44:38.630Z,978.80
2019-03-04T04:45:38.608Z,978.77
2019-03-04T04:46:38.567Z,978.73
2019-03-04T04:47:38.473Z,978.74
2019-03-04T04:48:38.427Z,978.69
2019-03-04T04:49:38.367Z,978.52
2019-03-04T04:50:38.336Z,978.66
2019-03-04T04:51:38.312Z,978.58
2019-03-04T04:52:38.242Z,978.39
2019-03-04T04:53:38.195Z,978.16
2019-03-04T04:54:38.112Z,978.27
2019-03-04T04:55:38.080Z,978.33
2019-03-04T04:56:38.040Z,978.27
2019-03-04T04:57:38.003Z,978.18
2019-03-04T04:58:37.939Z,978.10
2019-03-04T04:59:37.850Z,977.88
2019-03-04T05:00:37.811Z,977.67
2019-03-04T05:01:37.760Z,977.62
2019-03-04T05:02:37.735Z,977.59
2019-03-04T05:03:37.652Z,977.47
2019-03-04T05:04:37.635Z,977.54
2019-03-04T05:05:37.546Z,977.70
2019-03-04T05:06:37.510Z,978.04
2019-03-04T05:07:37.548Z,978.30
2019-03-04T05:08:37.387Z,978.01
2019-03-04T05:09:37.348Z,977.74
2019-03-04T05:10:37.280Z,977.81
2019-03-04T05:11:37.237Z,977.82
2019-03-04T05:12:37.215Z,977.91
2019-03-04T05:13:37.141Z,978.11
2019-03-04T05:14:37.083Z,978.05
2019-03-04T05:15:37.028Z,978.01
2019-03-04T05:16:36.991Z,978.02
2019-03-04T05:17:37.008Z,978.02
2019-03-04T05:18:36.879Z,977.92
2019-03-04T05:19:36.847Z,977.97
2019-03-04T05:20:36.816Z,977.91
2019-03-04T05:21:36.742Z,977.90
2019-03-04T05:22:36.687Z,977.96
2019-03-04T05:23:36.617Z,977.87
2019-03-04T05:24:36.616Z,977.75
2019-03-04T05:25:36.528Z,977.77
2019-03-04T05:26:36.467Z,977.72
2019-03-04T05:27:36.462Z,977.72
2019-03-04T05:28:36.360Z,977.73
2019-03-04T05:29:36.302Z,977.79
2019-03-04T05:30:36.263Z,977.71
2019-03-04T05:31:36.237Z,977.77
2019-03-04T05:32:36.200Z,977.60
2019-03-04T05:33:36.102Z,977.67
2019-03-04T05:34:36.056Z,977.51
2019-03-04T05:35:36.005Z,977.56
2019-03-04T05:36:36.009Z,977.47
2019-03-04T05:37:35.919Z,977.45
2019-03-04T05:38:35.853Z,977.44
2019-03-04T05:39:35.820Z,977.39
2019-03-04T05:40:35.743Z,977.39
2019-03-04T05:41:35.705Z,977.39
2019-03-04T05:42:35.710Z,977.35
2019-03-04T05:43:35.603Z,977.22
2019-03-04T05:44:35.546Z,977.23
2019-03-04T05:45:35.531Z,977.20
2019-03-04T05:46:35.508Z,977.12
2019-03-04T05:47:35.419Z,977.00
2019-03-04T05:48:35.382Z,977.04
2019-03-04T05:49:35.296Z,976.81
2019-03-04T05:50:35.241Z,976.86
2019-03-04T05:51:35.198Z,976.85
2019-03-04T05:52:35.159Z,976.84
2019-03-04T05:53:35.083Z,976.82
2019-03-04T05:54:35.025Z,976.89
2019-03-04T05:55:35.020Z,977.03
2019-03-04T05:56:34.921Z,977.02
2019-03-04T05:57:34.999Z,977.12
2019-03-04T05:58:34.844Z,976.97
2019-03-04T05:59:34.772Z,976.92
2019-03-04T06:00:34.734Z,976.95
2019-03-04T06:01:34.672Z,976.88
2019-03-04T06:02:34.663Z,976.86
2019-03-04T06:03:34.595Z,976.83
2019-03-04T06:04:34.523Z,976.82
2019-03-04T06:05:34.527Z,976.64
2019-03-04T06:06:34.423Z,976.62
2019-03-04T06:07:34.448Z,976.70
2019-03-04T06:08:34.443Z,976.68
2019-03-04T06:09:34.253Z,976.41
2019-03-04T06:10:34.209Z,976.61
2019-03-04T06:11:34.167Z,976.67
2019-03-04T06:12:34.121Z,976.77
2019-03-04T06:13:34.344Z,976.78
2019-03-04T06:14:34.043Z,976.60
2019-03-04T06:15:33.965Z,976.54
2019-03-04T06:16:33.913Z,976.58
2019-03-04T06:17:33.895Z,976.61
2019-03-04T06:18:33.855Z,976.47
2019-03-04T06:19:33.780Z,976.57
2019-03-04T06:20:33.760Z,976.56
2019-03-04T06:21:33.689Z,976.46
2019-03-04T06:22:33.601Z,976.50
2019-03-04T06:23:33.590Z,976.33
2019-03-04T06:24:33.500Z,976.55
2019-03-04T06:25:33.449Z,976.41
2019-03-04T06:26:33.401Z,976.36
2019-03-04T06:27:33.360Z,976.56
2019-03-04T06:28:33.320Z,976.47
2019-03-04T06:29:33.257Z,976.41
2019-03-04T06:30:33.197Z,976.34
2019-03-04T06:31:33.149Z,976.41
2019-03-04T06:32:33.108Z,976.19
2019-03-04T06:33:33.066Z,976.39
2019-03-04T06:34:32.980Z,976.32
2019-03-04T06:35:32.943Z,976.25
2019-03-04T06:36:32.890Z,976.23
2019-03-04T06:37:32.847Z,976.08
2019-03-04T06:38:32.819Z,976.17
2019-03-04T06:39:32.788Z,976.03
2019-03-04T06:40:32.705Z,975.87
2019-03-04T06:41:32.651Z,975.82
2019-03-04T06:42:32.577Z,975.77
2019-03-04T06:43:32.555Z,975.74
2019-03-04T06:44:32.577Z,975.93
2019-03-04T06:45:32.464Z,975.77
2019-03-04T06:46:32.392Z,975.85
2019-03-04T06:47:32.326Z,975.85
2019-03-04T06:48:32.352Z,975.79
2019-03-04T06:49:32.231Z,975.92
2019-03-04T06:50:32.171Z,975.92
2019-03-04T06:51:32.124Z,975.99
2019-03-04T06:52:32.083Z,975.96
2019-03-04T06:53:32.082Z,975.89
2019-03-04T06:54:31.971Z,975.96
2019-03-04T06:55:31.952Z,975.81
2019-03-04T06:56:31.904Z,975.81
2019-03-04T06:57:31.809Z,975.72
2019-03-04T06:58:31.779Z,975.92
2019-03-04T06:59:31.716Z,975.75
2019-03-04T07:00:31.695Z,975.73
2019-03-04T07:01:31.714Z,975.71
2019-03-04T07:02:31.560Z,975.59
2019-03-04T07:03:31.538Z,975.64
2019-03-04T07:04:31.451Z,975.59
2019-03-04T07:05:31.419Z,975.69
2019-03-04T07:06:31.364Z,975.68
2019-03-04T07:07:31.310Z,975.53
2019-03-04T07:08:31.290Z,975.56
2019-03-04T07:09:31.212Z,975.45
2019-03-04T07:10:31.192Z,975.75
2019-03-04T07:11:31.180Z,975.68
2019-03-04T07:12:31.072Z,975.78
2019-03-04T07:13:31.093Z,975.92
2019-03-04T07:14:30.951Z,977.03
2019-03-04T07:15:30.890Z,978.15
2019-03-04T07:16:32.097Z,978.40
2019-03-04T07:17:30.819Z,978.29
2019-03-04T07:18:30.747Z,978.06
2019-03-04T07:19:30.727Z,977.89
2019-03-04T07:20:30.648Z,977.91
2019-03-04T07:21:30.593Z,978.07
2019-03-04T07:22:30.535Z,977.87
2019-03-04T07:23:30.485Z,977.95
2019-03-04T07:24:30.484Z,978.08
2019-03-04T07:25:30.383Z,978.06
2019-03-04T07:26:30.329Z,978.05
2019-03-04T07:27:30.328Z,977.99
2019-03-04T07:28:30.217Z,977.97
2019-03-04T07:29:30.198Z,977.85
2019-03-04T07:30:30.117Z,977.86
2019-03-04T07:31:30.061Z,977.96
2019-03-04T07:32:30.006Z,978.03
2019-03-04T07:33:29.980Z,978.01
2019-03-04T07:34:29.919Z,978.13
2019-03-04T07:35:29.853Z,978.02
2019-03-04T07:36:29.802Z,978.00
2019-03-04T07:37:29.793Z,978.10
2019-03-04T07:38:29.693Z,978.02
2019-03-04T07:39:29.753Z,977.95
2019-03-04T07:40:29.577Z,977.75
2019-03-04T07:41:29.609Z,977.75
2019-03-04T07:42:31.265Z,977.53
2019-03-04T07:43:29.434Z,977.72
2019-03-04T07:44:29.377Z,977.77
2019-03-04T07:45:29.311Z,977.72
2019-03-04T07:46:29.265Z,977.75
2019-03-04T07:47:29.196Z,977.67
2019-03-04T07:48:29.144Z,977.64
2019-03-04T07:49:29.159Z,977.45
2019-03-04T07:50:29.054Z,977.26
2019-03-04T07:51:29.007Z,977.15
2019-03-04T07:52:28.928Z,977.20
2019-03-04T07:53:28.898Z,977.16
2019-03-04T07:54:28.836Z,977.17
2019-03-04T07:55:28.842Z,977.15
2019-03-04T07:56:28.714Z,977.13
2019-03-04T07:57:28.656Z,977.05
2019-03-04T07:58:28.603Z,977.13
2019-03-04T07:59:28.582Z,977.25
2019-03-04T08:00:28.526Z,977.24
2019-03-04T08:01:28.442Z,977.37
2019-03-04T08:02:28.386Z,977.37
2019-03-04T08:03:28.334Z,977.35
2019-03-04T08:04:28.321Z,977.22
2019-03-04T08:05:28.225Z,977.26
2019-03-04T08:06:28.199Z,977.23
2019-03-04T08:07:28.108Z,977.24
2019-03-04T08:08:28.060Z,977.26
2019-03-04T08:09:28.080Z,977.41
2019-03-04T08:10:27.982Z,977.37
2019-03-04T08:11:27.906Z,977.48
2019-03-04T08:12:27.852Z,977.49
2019-03-04T08:13:27.799Z,977.56
2019-03-04T08:14:27.792Z,977.59
2019-03-04T08:15:27.681Z,977.52
2019-03-04T08:16:27.639Z,977.53
2019-03-04T08:17:27.584Z,977.42
2019-03-04T08:18:27.527Z,977.32
2019-03-04T08:19:27.485Z,977.24
2019-03-04T08:20:27.446Z,977.19
2019-03-04T08:21:27.358Z,977.24
2019-03-04T08:22:27.314Z,977.16
2019-03-04T08:23:27.262Z,977.16
2019-03-04T08:24:27.199Z,977.07
2019-03-04T08:25:27.168Z,977.07
2019-03-04T08:26:27.094Z,977.05
2019-03-04T08:27:27.107Z,977.06
2019-03-04T08:28:26.983Z,977.19
2019-03-04T08:29:26.926Z,977.26
2019-03-04T08:30:26.916Z,977.21
2019-03-04T08:31:26.814Z,977.28
2019-03-04T08:32:26.768Z,977.37
2019-03-04T08:33:26.733Z,977.35
2019-03-04T08:34:31.002Z,977.43
2019-03-04T08:35:26.626Z,977.60
2019-03-04T08:36:26.549Z,977.56
2019-03-04T08:37:26.502Z,977.53
2019-03-04T08:38:26.448Z,977.58
2019-03-04T08:39:26.389Z,977.42
2019-03-04T08:40:26.351Z,977.54
2019-03-04T08:41:26.276Z,977.54
2019-03-04T08:42:26.247Z,977.46
2019-03-04T08:43:26.189Z,977.43
2019-03-04T08:44:26.141Z,977.44
2019-03-04T08:45:26.168Z,977.46
2019-03-04T08:46:26.026Z,977.55
2019-03-04T08:47:25.957Z,977.31
2019-03-04T08:48:25.925Z,977.46
2019-03-04T08:49:25.844Z,977.44
2019-03-04T08:50:25.820Z,977.37
2019-03-04T08:51:25.844Z,977.38
2019-03-04T08:52:25.694Z,977.38
2019-03-04T08:53:25.643Z,977.38
2019-03-04T08:54:25.573Z,977.35
2019-03-04T08:55:25.573Z,977.39
2019-03-04T08:56:25.479Z,977.32
2019-03-04T08:57:25.436Z,977.37
2019-03-04T08:58:25.375Z,977.34
2019-03-04T08:59:25.314Z,977.42
2019-03-04T09:00:25.297Z,977.28
2019-03-04T09:01:25.203Z,977.46
2019-03-04T09:02:25.170Z,977.40
2019-03-04T09:03:25.102Z,977.40
2019-03-04T09:04:25.083Z,977.53
2019-03-04T09:05:25.008Z,977.63
2019-03-04T09:06:24.954Z,977.66
2019-03-04T09:07:24.896Z,977.47
2019-03-04T09:08:24.834Z,977.28
2019-03-04T09:09:24.776Z,977.63
2019-03-04T09:10:24.761Z,977.62
2019-03-04T09:11:24.682Z,977.54
2019-03-04T09:12:24.615Z,977.61
2019-03-04T09:13:24.565Z,977.73
2019-03-04T09:14:24.517Z,977.67
2019-03-04T09:15:24.487Z,977.61
2019-03-04T09:16:24.425Z,977.64
2019-03-04T09:17:24.347Z,977.67
2019-03-04T09:18:24.304Z,977.59
2019-03-04T09:19:24.249Z,977.76
2019-03-04T09:20:24.241Z,977.66
2019-03-04T09:21:24.147Z,977.57
2019-03-04T09:22:24.104Z,977.70
2019-03-04T09:23:24.052Z,977.71
2019-03-04T09:24:23.997Z,977.60
2019-03-04T09:25:30.521Z,977.49
2019-03-04T09:26:23.913Z,977.71
2019-03-04T09:27:23.827Z,977.76
2019-03-04T09:28:23.774Z,977.62
2019-03-04T09:29:23.788Z,977.66
2019-03-04T09:30:23.675Z,977.71
2019-03-04T09:31:23.643Z,977.73
2019-03-04T09:32:23.567Z,977.63
2019-03-04T09:33:23.512Z,977.53
2019-03-04T09:34:23.468Z,977.69
2019-03-04T09:35:23.411Z,977.41
2019-03-04T09:36:23.374Z,977.49
2019-03-04T09:37:23.307Z,977.61
2019-03-04T09:38:23.250Z,977.57
2019-03-04T09:39:23.197Z,977.46
2019-03-04T09:40:23.152Z,977.41
2019-03-04T09:41:23.113Z,977.37
2019-03-04T09:42:23.035Z,977.46
2019-03-04T09:43:22.990Z,977.43
2019-03-04T09:44:22.937Z,977.52
2019-03-04T09:45:22.882Z,977.59
2019-03-04T09:46:22.859Z,977.55
2019-03-04T09:47:22.777Z,977.45
2019-03-04T09:48:22.722Z,977.46
2019-03-04T09:49:22.689Z,977.46
2019-03-04T09:50:22.624Z,977.46
2019-03-04T09:51:24.607Z,977.42
2019-03-04T09:52:22.521Z,977.47
2019-03-04T09:53:22.465Z,977.36
2019-03-04T09:54:22.499Z,977.19
2019-03-04T09:55:22.363Z,977.33
2019-03-04T09:56:22.330Z,977.33
2019-03-04T09:57:22.272Z,977.22
2019-03-04T09:58:22.200Z,977.20
2019-03-04T09:59:22.150Z,977.22
2019-03-04T10:00:22.108Z,977.17
2019-03-04T10:01:22.072Z,977.21
2019-03-04T10:02:21.992Z,977.25
2019-03-04T10:03:21.966Z,977.27
2019-03-04T10:04:21.901Z,977.21
2019-03-04T10:05:21.852Z,977.29
2019-03-04T10:06:21.827Z,977.25
2019-03-04T10:07:21.742Z,977.13
2019-03-04T10:08:21.691Z,977.15
2019-03-04T10:09:21.637Z,977.34
2019-03-04T10:10:21.585Z,977.18
2019-03-04T10:11:21.564Z,977.11
2019-03-04T10:12:21.487Z,977.16
2019-03-04T10:13:21.430Z,977.24
2019-03-04T10:14:21.385Z,977.18
2019-03-04T10:15:21.328Z,977.17
2019-03-04T10:16:21.312Z,977.08
2019-03-04T10:17:21.229Z,977.12
2019-03-04T10:18:21.182Z,977.11
2019-03-04T10:19:21.148Z,977.15
2019-03-04T10:20:21.136Z,977.07
2019-03-04T10:21:21.067Z,977.01
2019-03-04T10:22:20.973Z,976.97
2019-03-04T10:23:20.915Z,977.05
2019-03-04T10:24:20.869Z,977.14
2019-03-04T10:25:20.822Z,977.04
2019-03-04T10:26:22.986Z,977.20
2019-03-04T10:27:20.738Z,977.19
2019-03-04T10:28:20.661Z,977.11
2019-03-04T10:29:20.611Z,977.11
2019-03-04T10:30:20.559Z,977.29
2019-03-04T10:31:20.517Z,977.23
2019-03-04T10:32:20.483Z,977.15
2019-03-04T10:33:20.410Z,977.19
2019-03-04T10:34:20.374Z,977.16
2019-03-04T10:35:20.300Z,977.22
2019-03-04T10:36:20.316Z,977.22
2019-03-04T10:37:20.219Z,977.14
2019-03-04T10:38:22.850Z,977.31
2019-03-04T10:39:22.508Z,977.22
2019-03-04T10:40:20.043Z,977.16
2019-03-04T10:41:19.995Z,977.08
2019-03-04T10:42:19.968Z,977.27
2019-03-04T10:43:19.901Z,977.36
2019-03-04T10:44:19.879Z,977.27
2019-03-04T10:45:19.796Z,977.46
2019-03-04T10:46:19.733Z,977.48
2019-03-04T10:47:19.719Z,977.51
2019-03-04T10:48:19.639Z,977.67
2019-03-04T10:49:19.589Z,977.87
2019-03-04T10:50:19.534Z,978.00
2019-03-04T10:51:19.488Z,978.04
2019-03-04T10:52:19.463Z,977.85
2019-03-04T10:53:19.375Z,978.01
2019-03-04T10:54:19.327Z,978.29
2019-03-04T10:55:19.273Z,978.08
2019-03-04T10:56:19.222Z,978.03
2019-03-04T10:57:19.231Z,978.21
2019-03-04T10:58:19.121Z,977.98
2019-03-04T10:59:19.071Z,978.16
2019-03-04T11:00:19.021Z,978.15
2019-03-04T11:01:18.963Z,978.14
2019-03-04T11:02:18.939Z,978.17
2019-03-04T11:03:18.877Z,978.09
2019-03-04T11:04:18.806Z,978.02
2019-03-04T11:05:18.812Z,978.16
2019-03-04T11:06:18.717Z,978.13
2019-03-04T11:07:18.673Z,978.13
2019-03-04T11:08:18.607Z,977.97
2019-03-04T11:09:18.537Z,978.02
2019-03-04T11:10:18.495Z,977.84
2019-03-04T11:11:18.435Z,977.90
2019-03-04T11:12:18.480Z,977.86
2019-03-04T11:13:18.317Z,977.86
2019-03-04T11:14:18.307Z,977.87
2019-03-04T11:15:18.227Z,977.91
2019-03-04T11:16:18.178Z,977.86
2019-03-04T11:17:18.157Z,977.79
2019-03-04T11:18:18.080Z,977.79
2019-03-04T11:19:18.019Z,977.79
2019-03-04T11:20:17.968Z,977.82
2019-03-04T11:21:17.906Z,977.81
2019-03-04T11:22:17.896Z,977.77
2019-03-04T11:23:17.802Z,977.82
2019-03-04T11:24:17.806Z,977.70
2019-03-04T11:25:17.697Z,977.71
2019-03-04T11:26:17.638Z,977.77
2019-03-04T11:27:17.625Z,977.77
2019-03-04T11:28:17.535Z,977.66
2019-03-04T11:29:17.519Z,977.71
2019-03-04T11:30:17.436Z,977.63
2019-03-04T11:31:17.382Z,977.57
2019-03-04T11:32:17.362Z,977.49
2019-03-04T11:33:17.284Z,977.53
2019-03-04T11:34:17.229Z,977.56
2019-03-04T11:35:17.167Z,977.55
2019-03-04T11:36:17.134Z,977.53
2019-03-04T11:37:17.116Z,977.55
2019-03-04T11:38:17.009Z,977.52
2019-03-04T11:39:16.964Z,977.43
2019-03-04T11:40:16.895Z,977.49
2019-03-04T11:41:16.835Z,977.45
2019-03-04T11:42:16.792Z,977.46
2019-03-04T11:43:16.783Z,977.45
2019-03-04T11:44:16.688Z,977.36
2019-03-04T11:45:16.636Z,977.39
2019-03-04T11:46:16.573Z,977.44
2019-03-04T11:47:16.571Z,977.36
2019-03-04T11:48:16.507Z,977.38
2019-03-04T11:49:16.416Z,977.49
2019-03-04T11:50:16.444Z,977.42
2019-03-04T11:51:16.410Z,977.38
2019-03-04T11:52:16.292Z,977.13
2019-03-04T11:53:16.247Z,977.27
2019-03-04T11:54:16.155Z,977.26
2019-03-04T11:55:16.102Z,977.19
2019-03-04T11:56:16.055Z,977.22
2019-03-04T11:57:15.993Z,977.20
2019-03-04T11:58:15.966Z,977.21
2019-03-04T11:59:15.883Z,977.24
2019-03-04T12:00:15.830Z,977.34
2019-03-04T12:01:15.804Z,977.26
2019-03-04T12:02:15.732Z,977.32
2019-03-04T12:03:15.696Z,977.36
2019-03-04T12:04:15.621Z,977.51
2019-03-04T12:05:15.562Z,977.88
2019-03-04T12:06:15.514Z,978.14
2019-03-04T12:07:15.468Z,978.19
2019-03-04T12:08:15.433Z,978.52
2019-03-04T12:09:15.358Z,978.42
2019-03-04T12:10:15.303Z,978.52
2019-03-04T12:11:15.258Z,978.55
2019-03-04T12:12:15.198Z,978.58
2019-03-04T12:13:15.195Z,978.62
2019-03-04T12:14:15.082Z,978.70
2019-03-04T12:15:15.040Z,978.65
2019-03-04T12:16:14.980Z,978.83
2019-03-04T12:17:14.917Z,978.81
2019-03-04T12:18:14.912Z,978.78
2019-03-04T12:19:14.825Z,978.80
2019-03-04T12:20:14.784Z,978.79
2019-03-04T12:21:15.849Z,978.62
2019-03-04T12:22:14.666Z,978.70
2019-03-04T12:23:14.647Z,978.69
2019-03-04T12:24:14.551Z,978.55
2019-03-04T12:25:14.504Z,978.54
2019-03-04T12:26:14.524Z,978.49
2019-03-04T12:27:14.376Z,978.46
2019-03-04T12:28:14.352Z,978.44